Time;durP1;ratioP1;P1;durP2;ratioP2;P2;SDS_P1;SDS_P2;PMS_P1;PMS_P2;Temp;Humidity;BMP_temperature;BMP_pressure;BME280_temperature;BME280_humidity;BME280_pressure;Samples;Min_cycle;Max_cycle;Signal;HPM_P1;HPM_P2
2023/08/20 00:00:24;;;;;;;0.00;0.00;;;;;;;16.69;99.83;100732.03;4956959;28;20046;-77
2023/08/20 00:02:56;;;;;;;0.00;0.00;;;;;;;16.69;99.25;100721.00;4945506;28;20060;-75
2023/08/20 00:05:21;;;;;;;0.00;0.00;;;;;;;16.77;98.90;100745.19;4961492;28;20027;-76
2023/08/20 00:07:47;;;;;;;0.00;0.00;;;;;;;16.75;99.27;100739.16;4938282;28;20050;-76
2023/08/20 00:10:12;;;;;;;0.00;0.00;;;;;;;16.79;98.88;100742.94;4954863;28;20101;-73
2023/08/20 00:12:38;;;;;;;0.00;0.00;;;;;;;16.78;98.82;100735.78;4947023;28;20066;-74
2023/08/20 00:15:04;;;;;;;0.00;0.00;;;;;;;16.82;98.66;100742.34;4934518;29;20034;-73
2023/08/20 00:17:35;;;;;;;0.00;0.00;;;;;;;16.80;99.05;100739.06;4940411;28;20053;-74
2023/08/20 00:20:00;;;;;;;0.00;0.00;;;;;;;16.80;99.15;100755.63;4939681;28;20031;-73
2023/08/20 00:22:26;;;;;;;0.00;0.00;;;;;;;16.81;98.54;100757.28;4936144;28;20041;-74
2023/08/20 00:24:54;;;;;;;0.00;0.00;;;;;;;16.78;98.59;100757.03;4961217;28;20385;-73
2023/08/20 00:27:20;;;;;;;0.00;0.00;;;;;;;16.67;98.95;100750.84;4961684;28;20045;-74
2023/08/20 00:29:45;;;;;;;0.00;0.00;;;;;;;16.52;99.52;100758.25;4953152;28;20022;-74
2023/08/20 00:32:11;;;;;;;0.00;0.00;;;;;;;16.34;99.87;100761.81;4919159;28;20105;-74
2023/08/20 00:34:36;;;;;;;0.00;0.00;;;;;;;16.15;100.00;100762.63;4945566;28;20059;-74
2023/08/20 00:37:02;;;;;;;0.00;0.00;;;;;;;15.97;100.00;100749.59;4920988;28;20422;-74
2023/08/20 00:39:31;;;;;;;0.00;0.00;;;;;;;15.81;100.00;100747.03;4945858;28;20027;-74
2023/08/20 00:41:56;;;;;;;0.00;0.00;;;;;;;15.72;100.00;100765.28;4918393;28;20027;-74
2023/08/20 00:44:22;;;;;;;0.00;0.00;;;;;;;15.58;100.00;100748.63;4935055;28;20559;-73
2023/08/20 00:46:50;;;;;;;0.00;0.00;;;;;;;15.60;100.00;100765.69;4949565;28;20023;-74
2023/08/20 00:49:17;;;;;;;0.00;0.00;;;;;;;15.62;100.00;100768.16;4946883;28;20109;-73
2023/08/20 00:51:43;;;;;;;0.00;0.00;;;;;;;15.62;100.00;100765.38;4961214;28;20106;-73
2023/08/20 00:54:09;;;;;;;0.00;0.00;;;;;;;15.63;100.00;100761.53;4951744;28;20081;-73
2023/08/20 00:56:35;;;;;;;0.00;0.00;;;;;;;15.62;100.00;100765.38;4962403;28;20031;-74
2023/08/20 00:59:01;;;;;;;0.00;0.00;;;;;;;15.58;100.00;100765.16;4959313;28;20046;-74
2023/08/20 01:01:26;;;;;;;0.00;0.00;;;;;;;15.57;100.00;100768.22;4950497;28;20034;-73
2023/08/20 01:03:52;;;;;;;0.00;0.00;;;;;;;15.59;100.00;100765.97;4952294;28;20485;-74
2023/08/20 01:06:36;;;;;;;0.00;0.00;;;;;;;15.73;100.00;100780.72;4955400;28;20014;-74
2023/08/20 01:09:11;;;;;;;0.00;0.00;;;;;;;15.83;100.00;100783.41;4967697;28;20038;-73
2023/08/20 01:11:46;;;;;;;0.00;0.00;;;;;;;15.88;100.00;100769.53;4953710;28;20034;-74
2023/08/20 01:14:16;;;;;;;0.00;0.00;;;;;;;16.03;100.00;100781.50;4954952;28;20035;-74
2023/08/20 01:16:41;;;;;;;0.00;0.00;;;;;;;16.17;100.00;100789.91;4919935;29;20255;-75
2023/08/20 01:19:10;;;;;;;0.00;0.00;;;;;;;16.26;100.00;100785.38;4957769;28;20864;-75
2023/08/20 01:21:39;;;;;;;0.00;0.00;;;;;;;16.34;100.00;100794.91;4970308;28;20029;-73
2023/08/20 01:24:16;;;;;;;0.00;0.00;;;;;;;16.40;100.00;100796.50;4969124;28;20035;-74
2023/08/20 01:27:00;;;;;;;0.00;0.00;;;;;;;16.47;100.00;100796.97;4964166;28;20027;-72
2023/08/20 01:29:27;;;;;;;0.00;0.00;;;;;;;16.48;100.00;100795.03;4964922;28;20117;-73
2023/08/20 01:31:54;;;;;;;0.00;0.00;;;;;;;16.48;100.00;100798.59;4953225;28;20384;-73
2023/08/20 01:34:21;;;;;;;0.00;0.00;;;;;;;16.56;100.00;100795.19;4945751;28;20505;-73
2023/08/20 01:36:46;;;;;;;0.00;0.00;;;;;;;16.62;100.00;100786.81;4929389;29;20039;-73
2023/08/20 01:39:11;;;;;;;0.00;0.00;;;;;;;16.65;100.00;100794.53;4941602;28;20054;-72
2023/08/20 01:41:37;;;;;;;0.00;0.00;;;;;;;16.60;100.00;100789.06;4963653;28;20500;-72
2023/08/20 01:56:30;;;;;;;0.00;0.00;;;;;;;16.42;100.00;100786.00;5105306;27;20375;-75
2023/08/20 01:58:56;;;;;;;0.00;0.00;;;;;;;16.49;100.00;100786.44;5082387;28;20043;-75
2023/08/20 02:01:21;;;;;;;0.00;0.00;;;;;;;16.53;100.00;100779.22;5078471;28;20466;-75
2023/08/20 02:03:47;;;;;;;0.00;0.00;;;;;;;16.57;100.00;100794.06;5072179;28;20555;-75
2023/08/20 02:06:12;;;;;;;0.00;0.00;;;;;;;16.61;100.00;100801.75;5055359;28;20032;-74
2023/08/20 02:08:37;;;;;;;0.00;0.00;;;;;;;16.63;100.00;100799.50;5086618;28;20587;-76
2023/08/20 02:11:04;;;;;;;0.00;0.00;;;;;;;16.67;100.00;100800.56;5070786;28;20054;-74
2023/08/20 02:13:30;;;;;;;0.00;0.00;;;;;;;16.70;100.00;100805.47;5073031;28;20021;-74
2023/08/20 02:16:01;;;;;;;0.00;0.00;;;;;;;16.72;100.00;100801.31;5095730;28;20118;-76
2023/08/20 02:18:26;;;;;;;0.00;0.00;;;;;;;16.73;100.00;100804.88;5092822;28;20486;-75
2023/08/20 02:20:51;;;;;;;0.00;0.00;;;;;;;16.73;100.00;100804.88;5059366;28;20024;-75
2023/08/20 02:23:17;;;;;;;0.00;0.00;;;;;;;16.65;100.00;100798.09;5090710;28;20021;-75
2023/08/20 02:25:43;;;;;;;0.00;0.00;;;;;;;16.57;100.00;100796.84;5068949;28;20059;-75
2023/08/20 02:28:09;;;;;;;0.00;0.00;;;;;;;16.57;100.00;100801.50;5085888;28;20106;-74
2023/08/20 02:30:40;;;;;;;0.00;0.00;;;;;;;16.63;100.00;100793.97;5069522;28;20049;-73
2023/08/20 02:33:06;;;;;;;0.00;0.00;;;;;;;16.70;100.00;100792.47;5089679;28;20056;-76
2023/08/20 02:35:31;;;;;;;0.00;0.00;;;;;;;16.74;100.00;100795.50;5071887;28;20039;-76
2023/08/20 02:37:57;;;;;;;0.00;0.00;;;;;;;16.79;100.00;100798.16;5064996;28;20062;-75
2023/08/20 02:40:22;;;;;;;0.00;0.00;;;;;;;16.76;100.00;100804.28;5071226;28;20791;-75
2023/08/20 17:21:25;;;;;;;0.00;0.00;;;;;;;27.79;41.35;100944.59;4504099;28;15223135;-79
2023/08/20 17:23:51;;;;;;;0.00;0.00;;;;;;;27.85;41.04;100954.34;5038915;28;20032;-79
2023/08/20 17:26:16;;;;;;;0.00;0.00;;;;;;;28.16;40.93;100936.47;5023875;28;20033;-76
2023/08/20 17:28:42;;;;;;;0.00;0.00;;;;;;;28.32;40.13;100941.97;5010000;28;20029;-77
2023/08/20 17:31:07;;;;;;;0.00;0.00;;;;;;;27.17;42.23;100942.47;5005077;28;20078;-81
2023/08/20 17:33:33;;;;;;;0.00;0.00;;;;;;;25.58;45.04;100937.63;5022520;28;20080;-79
2023/08/20 17:36:00;;;;;;;0.00;0.00;;;;;;;24.41;48.22;100917.59;5006059;28;20024;-76
2023/08/20 17:38:25;;;;;;;0.00;0.00;;;;;;;23.97;50.08;100939.66;5018115;28;20059;-77
2023/08/20 17:40:51;;;;;;;0.00;0.00;;;;;;;24.31;50.72;100946.00;4993206;28;20037;-78
2023/08/20 17:43:16;;;;;;;0.00;0.00;;;;;;;24.80;48.95;100948.03;5038776;28;20426;-80
2023/08/20 17:45:42;;;;;;;0.00;0.00;;;;;;;24.34;50.60;100948.09;5034730;28;20021;-78
2023/08/20 17:48:07;;;;;;;0.00;0.00;;;;;;;24.03;50.29;100943.84;5018752;28;20025;-78
2023/08/20 17:50:36;;;;;;;0.00;0.00;;;;;;;23.40;52.44;100950.31;5016153;28;20025;-76
2023/08/20 17:53:04;;;;;;;0.00;0.00;;;;;;;22.78;54.72;100947.09;5035318;28;20040;-75
2023/08/20 17:55:33;;;;;;;0.00;0.00;;;;;;;22.52;57.10;100954.78;5019425;28;20146;-75
2023/08/20 17:57:59;;;;;;;0.00;0.00;;;;;;;22.70;56.22;100961.91;5044329;28;20025;-77
2023/08/20 18:00:25;;;;;;;0.00;0.00;;;;;;;22.20;57.71;100954.22;5022833;28;20954;-78
2023/08/20 18:02:50;;;;;;;0.00;0.00;;;;;;;21.80;59.62;100958.06;5042762;28;20470;-77
2023/08/20 18:05:16;;;;;;;0.00;0.00;;;;;;;21.48;61.43;100973.25;5027572;28;20028;-77
2023/08/20 18:07:42;;;;;;;0.00;0.00;;;;;;;21.33;61.93;100961.44;5028738;28;20036;-76
2023/08/20 18:10:07;;;;;;;0.00;0.00;;;;;;;21.17;62.05;100951.97;5014980;28;20033;-76
2023/08/20 18:12:33;;;;;;;0.00;0.00;;;;;;;20.99;63.48;100959.47;5025384;28;20040;-76
2023/08/20 18:14:58;;;;;;;0.00;0.00;;;;;;;20.84;64.42;100966.28;5019319;28;20032;-77
2023/08/20 18:17:24;;;;;;;0.00;0.00;;;;;;;20.72;65.22;100970.50;5013448;28;20754;-77
2023/08/20 18:19:50;;;;;;;0.00;0.00;;;;;;;20.57;66.21;100977.28;5008970;28;20119;-77
2023/08/20 18:22:15;;;;;;;0.00;0.00;;;;;;;20.47;66.27;100987.84;5022008;28;20116;-76
2023/08/20 18:24:41;;;;;;;0.00;0.00;;;;;;;20.32;67.46;100989.09;5038759;28;21320;-77
2023/08/20 18:27:06;;;;;;;0.00;0.00;;;;;;;20.15;68.41;100998.13;5023523;28;20478;-77
2023/08/20 18:29:32;;;;;;;0.00;0.00;;;;;;;19.94;69.55;100993.09;5028776;28;20127;-79
2023/08/20 18:31:57;;;;;;;0.00;0.00;;;;;;;19.76;70.17;100983.78;5021577;28;20446;-76
2023/08/20 18:34:28;;;;;;;0.00;0.00;;;;;;;19.54;71.40;100979.06;5010624;28;20028;-79
2023/08/20 18:36:54;;;;;;;0.00;0.00;;;;;;;19.56;71.98;101007.28;5006764;28;20071;-80
2023/08/20 18:39:22;;;;;;;0.00;0.00;;;;;;;19.40;72.39;100997.69;5027942;28;20053;-81
2023/08/20 18:41:58;;;;;;;;;;;;;;;;;;;;;
2023/08/20 18:44:39;;;;;;;0.00;0.00;;;;;;;19.38;73.95;101011.84;5029215;28;20032;-80
2023/08/20 18:47:10;;;;;;;0.00;0.00;;;;;;;19.41;73.88;100999.31;5041371;28;20452;-77
2023/08/20 18:49:36;;;;;;;0.00;0.00;;;;;;;19.28;74.31;100992.69;5010691;28;20036;-80
2023/08/20 18:52:02;;;;;;;0.00;0.00;;;;;;;19.18;75.07;101013.13;4985618;28;20083;-79
2023/08/20 18:54:38;;;;;;;;;;;;;;;;;;;;;
2023/08/20 18:57:16;;;;;;;;;;;;;;;;;;;;;
2023/08/20 19:03:12;;;;;;;0.00;0.00;;;;;;;18.15;77.61;100965.25;4988808;28;20041;-77
2023/08/20 19:05:49;;;;;;;;;;;;;;;;;;;;;
2023/08/20 19:08:43;;;;;;;0.00;0.00;;;;;;;18.08;78.10;100996.06;5040005;28;20361;-76
2023/08/20 19:11:09;;;;;;;0.00;0.00;;;;;;;18.10;79.10;101018.72;5038229;28;20025;-79
2023/08/20 19:13:58;;;;;;;;;;;;;;;;;;;;;
2023/08/20 19:16:51;;;;;;;;;;;;;;;;;;;;;
2023/08/20 19:19:19;;;;;;;0.00;0.00;;;;;;;17.83;80.51;101018.56;5037486;28;20024;-74
2023/08/20 19:21:45;;;;;;;0.00;0.00;;;;;;;18.09;80.12;101039.22;5024593;28;20041;-74
2023/08/20 19:24:10;;;;;;;0.00;0.00;;;;;;;18.22;80.00;101029.31;5019141;28;20039;-73
2023/08/20 19:26:36;;;;;;;0.00;0.00;;;;;;;18.32;79.43;101042.16;5011902;28;20116;-74
2023/08/20 19:29:01;;;;;;;0.00;0.00;;;;;;;18.31;79.99;101037.75;5039610;28;20668;-75
2023/08/20 19:31:27;;;;;;;0.00;0.00;;;;;;;18.32;80.27;101044.94;4985503;28;20029;-74
2023/08/20 19:33:53;;;;;;;0.00;0.00;;;;;;;18.34;80.73;101053.78;5017880;28;20034;-75
2023/08/20 19:36:21;;;;;;;0.00;0.00;;;;;;;18.30;80.61;101061.84;5026950;28;20025;-74
2023/08/20 19:38:47;;;;;;;0.00;0.00;;;;;;;18.25;80.68;101058.34;5027539;28;20036;-73
2023/08/20 19:41:12;;;;;;;0.00;0.00;;;;;;;18.15;80.59;101053.81;5037202;28;20021;-77
2023/08/20 19:43:39;;;;;;;0.00;0.00;;;;;;;18.12;80.75;101059.91;5036563;28;20025;-75
2023/08/20 19:46:05;;;;;;;0.00;0.00;;;;;;;18.09;80.31;101077.13;5041071;28;20029;-75
2023/08/20 19:48:30;;;;;;;0.00;0.00;;;;;;;17.93;80.59;101060.78;5009403;28;20077;-75
2023/08/20 19:50:56;;;;;;;0.00;0.00;;;;;;;17.91;80.56;101060.25;5021072;28;20033;-74
2023/08/20 19:53:21;;;;;;;0.00;0.00;;;;;;;17.93;81.22;101080.16;4999713;28;20434;-75
2023/08/20 19:55:47;;;;;;;0.00;0.00;;;;;;;17.83;81.32;101080.28;5030339;28;20472;-74
2023/08/20 19:58:15;;;;;;;0.00;0.00;;;;;;;17.76;81.14;101077.06;5020247;28;20064;-76
2023/08/20 20:01:28;;;;;;;;;;;;;;;;;;;;;
2023/08/20 20:04:35;;;;;;;0.00;0.00;;;;;;;17.53;81.41;101064.94;5026851;28;20037;-77
2023/08/20 20:06:58;;;;;;;0.00;0.00;;;;;;;17.65;81.99;101095.72;5031673;28;20035;-73
2023/08/20 20:09:25;;;;;;;0.00;0.00;;;;;;;17.58;81.69;101082.28;5026324;28;20025;-72
2023/08/20 20:11:52;;;;;;;0.00;0.00;;;;;;;17.52;82.35;101080.72;5029389;28;20475;-75
2023/08/20 20:14:20;;;;;;;0.00;0.00;;;;;;;17.58;81.96;101090.56;5023380;28;20029;-78
2023/08/20 20:16:48;;;;;;;0.00;0.00;;;;;;;17.61;82.06;101089.16;5033943;28;20036;-75
2023/08/20 20:19:13;;;;;;;0.00;0.00;;;;;;;17.63;81.79;101098.78;5026635;28;20044;-77
2023/08/20 20:21:40;;;;;;;0.00;0.00;;;;;;;17.62;82.32;101102.69;5036800;28;20052;-74
2023/08/20 20:24:06;;;;;;;0.00;0.00;;;;;;;17.57;82.08;101099.16;5048256;28;20051;-71
2023/08/20 20:26:31;;;;;;;0.00;0.00;;;;;;;17.47;82.85;101093.78;5044764;28;20705;-73
2023/08/20 20:28:58;;;;;;;0.00;0.00;;;;;;;17.36;82.83;101091.16;5027738;28;20059;-72
2023/08/20 20:31:24;;;;;;;0.00;0.00;;;;;;;17.39;83.36;101098.00;5029267;28;20431;-73
2023/08/20 20:33:49;;;;;;;0.00;0.00;;;;;;;17.27;83.70;101085.44;5046291;28;20364;-72
2023/08/20 20:36:15;;;;;;;0.00;0.00;;;;;;;17.25;83.42;101093.19;5030484;28;20040;-71
2023/08/20 20:38:40;;;;;;;0.00;0.00;;;;;;;17.18;84.07;101097.44;5036250;28;20035;-72
2023/08/20 20:41:10;;;;;;;0.00;0.00;;;;;;;17.13;83.99;101106.63;5047200;28;20036;-72
2023/08/20 20:43:35;;;;;;;0.00;0.00;;;;;;;17.07;84.07;101108.59;5048926;28;20673;-74
2023/08/20 20:46:01;;;;;;;0.00;0.00;;;;;;;17.04;84.65;101113.88;5039631;28;20033;-75
2023/08/20 20:48:26;;;;;;;0.00;0.00;;;;;;;16.99;85.36;101111.19;5036077;28;20037;-72
2023/08/20 20:50:52;;;;;;;0.00;0.00;;;;;;;16.95;85.51;101119.22;5066532;28;20074;-73
2023/08/20 20:53:17;;;;;;;0.00;0.00;;;;;;;16.93;85.88;101127.81;5053152;28;20036;-74
2023/08/20 20:55:43;;;;;;;0.00;0.00;;;;;;;16.84;85.64;101112.97;5043646;28;20033;-75
2023/08/20 20:58:12;;;;;;;0.00;0.00;;;;;;;16.86;86.33;101124.53;5046392;28;20630;-73
2023/08/20 21:00:37;;;;;;;0.00;0.00;;;;;;;16.82;86.21;101125.41;5057221;28;20812;-76
2023/08/20 21:03:03;;;;;;;0.00;0.00;;;;;;;16.77;86.02;101129.03;5059844;28;20526;-76
2023/08/20 21:05:28;;;;;;;0.00;0.00;;;;;;;16.80;86.37;101127.66;5052544;28;20083;-74
2023/08/20 21:07:54;;;;;;;0.00;0.00;;;;;;;16.76;86.63;101124.63;5059392;28;20391;-75
2023/08/20 21:10:19;;;;;;;0.00;0.00;;;;;;;16.73;86.62;101125.22;5057067;28;20044;-72
2023/08/20 21:12:45;;;;;;;0.00;0.00;;;;;;;16.58;87.09;101106.84;5057885;28;20029;-71
2023/08/20 21:15:11;;;;;;;0.00;0.00;;;;;;;16.66;86.76;101130.25;5054257;28;20028;-70
2023/08/20 21:17:36;;;;;;;0.00;0.00;;;;;;;16.61;86.51;101122.03;5029422;28;20033;-69
2023/08/20 21:20:03;;;;;;;0.00;0.00;;;;;;;16.57;86.52;101133.66;5019646;28;20495;-72
2023/08/20 21:22:29;;;;;;;0.00;0.00;;;;;;;16.51;87.04;101122.94;5036046;28;20021;-73
2023/08/20 21:24:54;;;;;;;0.00;0.00;;;;;;;16.46;87.42;101134.84;5054920;28;20125;-72
2023/08/20 21:27:20;;;;;;;0.00;0.00;;;;;;;16.40;87.70;101131.28;5036322;28;20036;-72
2023/08/20 21:29:45;;;;;;;0.00;0.00;;;;;;;16.36;88.42;101132.16;4996596;28;20083;-71
2023/08/20 21:32:10;;;;;;;0.00;0.00;;;;;;;16.38;88.12;101143.72;5037936;28;20036;-71
2023/08/20 21:34:36;;;;;;;0.00;0.00;;;;;;;16.30;88.20;101139.66;5022855;28;20064;-70
2023/08/20 21:37:02;;;;;;;0.00;0.00;;;;;;;16.29;88.17;101137.19;5033272;28;20666;-73
2023/08/20 21:39:27;;;;;;;0.00;0.00;;;;;;;16.29;88.67;101137.19;5056479;28;20355;-72
2023/08/20 21:41:53;;;;;;;0.00;0.00;;;;;;;16.22;88.65;101132.81;5040793;28;20521;-71
2023/08/20 21:44:19;;;;;;;0.00;0.00;;;;;;;16.18;89.26;101139.19;5049060;28;20408;-73
2023/08/20 21:46:44;;;;;;;0.00;0.00;;;;;;;16.12;89.46;101121.00;5043095;28;20111;-72
2023/08/20 21:49:10;;;;;;;0.00;0.00;;;;;;;16.11;89.55;101122.97;5035143;28;20032;-71
2023/08/20 21:51:36;;;;;;;0.00;0.00;;;;;;;16.16;89.92;101128.41;5050136;28;20191;-71
2023/08/20 21:54:02;;;;;;;0.00;0.00;;;;;;;16.14;90.12;101127.91;5048206;28;20036;-70
2023/08/20 21:56:29;;;;;;;0.00;0.00;;;;;;;16.17;90.37;101124.56;5036402;28;20039;-74
2023/08/20 21:58:54;;;;;;;0.00;0.00;;;;;;;16.12;90.38;101127.38;5023087;28;20563;-71
2023/08/20 22:01:20;;;;;;;0.00;0.00;;;;;;;16.05;91.08;101122.16;5039973;28;20036;-72
2023/08/20 22:03:45;;;;;;;0.00;0.00;;;;;;;15.97;91.30;101135.72;5058805;28;20075;-72
2023/08/20 22:06:11;;;;;;;0.00;0.00;;;;;;;15.91;91.88;101125.84;5014956;28;20431;-71
2023/08/20 22:08:36;;;;;;;0.00;0.00;;;;;;;15.94;92.08;101122.50;5036332;28;20041;-73
2023/08/20 22:11:02;;;;;;;0.00;0.00;;;;;;;15.95;92.37;101125.00;5023078;28;20411;-74
2023/08/20 22:13:28;;;;;;;0.00;0.00;;;;;;;15.97;92.54;101130.22;5046875;28;20128;-73
2023/08/20 22:15:55;;;;;;;0.00;0.00;;;;;;;15.90;92.32;101121.44;5045545;28;20852;-75
2023/08/20 22:18:21;;;;;;;0.00;0.00;;;;;;;15.87;92.82;101128.34;5054588;28;20387;-73
2023/08/20 22:20:49;;;;;;;0.00;0.00;;;;;;;15.85;92.69;101123.09;5035461;28;20049;-72
2023/08/20 22:23:15;;;;;;;0.00;0.00;;;;;;;15.83;93.30;101117.06;5018250;28;20029;-72
2023/08/20 22:25:41;;;;;;;0.00;0.00;;;;;;;15.80;93.23;101114.88;5041450;28;20528;-73
2023/08/20 22:28:06;;;;;;;0.00;0.00;;;;;;;15.77;93.54;101126.44;5023743;28;20032;-72
2023/08/20 22:30:33;;;;;;;0.00;0.00;;;;;;;15.70;93.55;101120.41;5026999;28;20025;-71
2023/08/20 22:32:58;;;;;;;0.00;0.00;;;;;;;15.66;94.10;101124.84;5053530;28;20035;-72
2023/08/20 22:35:24;;;;;;;0.00;0.00;;;;;;;15.71;94.23;101122.88;5021665;28;20041;-73
2023/08/20 22:38:09;;;;;;;0.00;0.00;;;;;;;15.68;94.13;101119.84;5048136;28;20036;-71
2023/08/20 22:40:41;;;;;;;0.00;0.00;;;;;;;15.60;94.27;101117.72;5051357;28;20474;-72
2023/08/20 22:43:07;;;;;;;0.00;0.00;;;;;;;15.55;94.35;101124.06;5049314;28;20044;-71
2023/08/20 22:45:32;;;;;;;0.00;0.00;;;;;;;15.50;94.43;101130.41;5058846;28;20364;-74
2023/08/20 22:47:59;;;;;;;0.00;0.00;;;;;;;15.42;94.70;101120.00;5036985;28;20024;-72
2023/08/20 22:50:25;;;;;;;0.00;0.00;;;;;;;15.34;95.20;101118.63;5029946;28;20425;-71
2023/08/20 22:52:51;;;;;;;0.00;0.00;;;;;;;15.28;95.56;101116.19;5034523;28;20500;-72
2023/08/20 22:55:16;;;;;;;0.00;0.00;;;;;;;15.29;96.14;101123.34;5056792;28;20033;-70
2023/08/20 22:57:44;;;;;;;0.00;0.00;;;;;;;15.30;96.21;101119.47;5023706;28;20071;-76
2023/08/20 23:00:11;;;;;;;0.00;0.00;;;;;;;15.42;96.04;101125.50;5040479;28;20056;-75
2023/08/20 23:02:37;;;;;;;0.00;0.00;;;;;;;15.49;95.90;101125.19;5047038;28;20028;-73
2023/08/20 23:05:04;;;;;;;0.00;0.00;;;;;;;15.45;96.04;101119.41;5039585;28;20025;-72
2023/08/20 23:07:30;;;;;;;0.00;0.00;;;;;;;15.58;95.79;101133.69;5034880;28;20048;-72
2023/08/20 23:09:56;;;;;;;0.00;0.00;;;;;;;15.61;95.84;101122.09;5059866;28;20029;-71
2023/08/20 23:12:22;;;;;;;0.00;0.00;;;;;;;15.67;95.84;101126.50;5040536;28;20112;-72
2023/08/20 23:14:47;;;;;;;0.00;0.00;;;;;;;15.73;95.57;101130.88;5039329;28;20431;-71
2023/08/20 23:17:17;;;;;;;0.00;0.00;;;;;;;15.84;95.29;101135.25;5040755;28;20081;-69
2023/08/20 23:19:43;;;;;;;0.00;0.00;;;;;;;15.88;94.94;101130.00;5030301;28;20486;-70
2023/08/20 23:22:08;;;;;;;0.00;0.00;;;;;;;15.95;94.72;101135.22;4990097;28;20067;-71
2023/08/20 23:24:33;;;;;;;0.00;0.00;;;;;;;16.01;94.51;101128.53;4996332;28;20242;-71
2023/08/20 23:26:59;;;;;;;0.00;0.00;;;;;;;16.08;94.08;101134.56;5008198;28;20071;-73
2023/08/20 23:29:24;;;;;;;0.00;0.00;;;;;;;16.14;93.86;101133.41;5009779;28;20025;-72
2023/08/20 23:31:50;;;;;;;0.00;0.00;;;;;;;16.13;93.99;101131.75;5035040;28;20033;-72
2023/08/20 23:34:15;;;;;;;0.00;0.00;;;;;;;16.16;93.39;101133.94;5009377;28;20038;-72
2023/08/20 23:36:40;;;;;;;0.00;0.00;;;;;;;16.18;93.73;101137.25;5038203;28;20029;-72
2023/08/20 23:39:06;;;;;;;0.00;0.00;;;;;;;16.17;94.15;101138.34;5021056;28;20836;-73
2023/08/20 23:41:31;;;;;;;0.00;0.00;;;;;;;16.27;93.43;101133.91;5020612;28;20106;-73
2023/08/20 23:43:57;;;;;;;0.00;0.00;;;;;;;16.29;93.67;101138.00;5045199;28;20032;-73
2023/08/20 23:46:22;;;;;;;0.00;0.00;;;;;;;16.29;93.55;101131.66;5017367;28;20376;-74
2023/08/20 23:48:47;;;;;;;0.00;0.00;;;;;;;16.31;93.50;101130.28;4996159;28;20025;-73
2023/08/20 23:51:13;;;;;;;0.00;0.00;;;;;;;16.34;93.35;101134.38;5011346;28;20063;-73
2023/08/20 23:53:38;;;;;;;0.00;0.00;;;;;;;16.34;93.24;101128.84;5012782;28;20064;-73
2023/08/20 23:56:04;;;;;;;0.00;0.00;;;;;;;16.33;93.12;101128.03;5016549;28;20033;-72
2023/08/20 23:58:29;;;;;;;0.00;0.00;;;;;;;16.35;93.13;101136.03;4996938;28;20187;-72
